Time;durP1;ratioP1;P1;durP2;ratioP2;P2;SDS_P1;SDS_P2;PMS_P1;PMS_P2;Temp;Humidity;BMP_temperature;BMP_pressure;BME280_temperature;BME280_humidity;BME280_pressure;Samples;Min_cycle;Max_cycle;Signal;HPM_P1;HPM_P2
2022/02/19 00:01:12;;;;;;;4.43;0.80;;;;;;;9.46;46.92;99097.28;5048526;28;20020;-85
2022/02/19 00:03:37;;;;;;;2.25;1.02;;;;;;;9.33;48.25;99080.81;5050403;28;20085;-84
2022/02/19 00:06:03;;;;;;;6.60;0.75;;;;;;;9.14;50.32;99085.25;5047957;28;20048;-84
2022/02/19 00:08:29;;;;;;;4.88;0.93;;;;;;;9.09;50.55;99087.94;5043778;28;20157;-85
2022/02/19 00:10:54;;;;;;;4.53;1.33;;;;;;;8.92;51.61;99087.53;5052971;28;20021;-85
2022/02/19 00:13:20;;;;;;;4.13;0.77;;;;;;;8.73;51.96;99082.84;5049812;28;20441;-84
2022/02/19 00:15:47;;;;;;;8.13;1.15;;;;;;;8.58;52.31;99074.91;5050354;28;20467;-85
2022/02/19 00:18:12;;;;;;;6.22;1.48;;;;;;;8.53;51.66;99100.84;5042184;28;20029;-85
2022/02/19 00:20:38;;;;;;;7.05;1.17;;;;;;;8.45;51.76;99111.03;5049557;28;20021;-84
2022/02/19 00:23:03;;;;;;;6.18;1.27;;;;;;;8.33;50.57;99089.16;5054414;28;20033;-84
2022/02/19 00:25:29;;;;;;;5.55;1.50;;;;;;;8.38;51.05;99104.38;5047441;28;20024;-84
2022/02/19 00:27:54;;;;;;;5.85;1.27;;;;;;;8.37;50.87;99105.44;5062040;28;20027;-84
2022/02/19 00:30:20;;;;;;;4.60;1.00;;;;;;;8.34;50.73;99116.69;5048877;28;20018;-84
2022/02/19 00:32:46;;;;;;;5.45;1.50;;;;;;;8.29;51.17;99111.34;5052188;28;20431;-85
2022/02/19 00:35:12;;;;;;;2.03;1.25;;;;;;;8.33;50.79;99109.72;5052386;28;20025;-85
2022/02/19 00:37:38;;;;;;;6.88;1.20;;;;;;;8.32;50.75;99098.25;5048546;28;20471;-84
2022/02/19 00:40:05;;;;;;;6.75;1.02;;;;;;;8.32;50.40;99066.22;5046128;28;20025;-84
2022/02/19 00:42:30;;;;;;;4.60;1.00;;;;;;;8.30;49.81;99103.06;5052905;28;20021;-84
2022/02/19 00:44:56;;;;;;;5.45;1.08;;;;;;;8.33;49.91;99105.16;5057796;28;20767;-85
2022/02/19 00:47:21;;;;;;;6.72;1.10;;;;;;;8.33;49.60;99104.38;5050622;28;20036;-85
2022/02/19 00:49:47;;;;;;;3.47;0.77;;;;;;;8.37;49.23;99092.09;5054794;28;20159;-85
2022/02/19 00:52:13;;;;;;;5.53;1.13;;;;;;;8.29;48.90;99098.00;5052909;28;20482;-84
2022/02/19 00:54:38;;;;;;;4.53;1.05;;;;;;;8.28;48.97;99089.19;5053360;28;20020;-84
2022/02/19 00:57:04;;;;;;;6.28;1.08;;;;;;;8.30;48.80;99107.59;5053773;28;20032;-85
2022/02/19 00:59:29;;;;;;;5.63;1.30;;;;;;;8.19;48.17;99101.47;5058001;28;20044;-85
2022/02/19 01:01:55;;;;;;;4.18;1.02;;;;;;;8.19;48.09;99096.94;5056276;28;20074;-84
2022/02/19 01:04:20;;;;;;;9.18;1.20;;;;;;;8.22;48.25;99098.25;5053898;28;20486;-84
2022/02/19 01:06:46;;;;;;;6.68;1.05;;;;;;;8.21;47.70;99094.00;5052664;28;20028;-85
2022/02/19 01:09:11;;;;;;;4.45;1.25;;;;;;;8.23;47.61;99077.72;5052075;28;20032;-84
2022/02/19 01:11:40;;;;;;;6.82;1.30;;;;;;;8.27;47.12;99124.16;5058555;28;20024;-84
2022/02/19 01:14:09;;;;;;;2.33;1.05;;;;;;;8.20;46.29;99076.41;5057528;28;20073;-84
2022/02/19 01:16:37;;;;;;;6.70;0.85;;;;;;;8.18;46.77;99076.66;5054470;28;20463;-84
2022/02/19 01:19:04;;;;;;;1.45;0.70;;;;;;;8.06;45.93;99081.50;5056178;28;20024;-85
2022/02/19 01:21:30;;;;;;;3.85;1.02;;;;;;;8.16;46.03;99081.50;5051167;28;20660;-84
2022/02/19 01:23:55;;;;;;;3.10;0.90;;;;;;;8.21;46.15;99071.84;5056772;28;20108;-84
2022/02/19 01:26:21;;;;;;;7.30;1.50;;;;;;;8.22;45.69;99055.56;5058496;28;20068;-84
2022/02/19 01:28:47;;;;;;;8.52;1.42;;;;;;;8.17;45.74;99061.75;5052084;28;20028;-84
2022/02/19 01:31:12;;;;;;;10.13;1.23;;;;;;;8.17;45.76;99039.59;5059234;28;20017;-84
2022/02/19 01:33:38;;;;;;;5.68;1.25;;;;;;;8.09;44.81;99067.66;5052862;28;20025;-84
2022/02/19 01:36:04;;;;;;;4.50;1.27;;;;;;;8.17;45.22;99037.72;5046796;28;20075;-84
2022/02/19 01:38:30;;;;;;;4.82;1.50;;;;;;;8.12;44.31;99055.63;5058323;28;20090;-84
2022/02/19 01:40:56;;;;;;;3.60;1.17;;;;;;;8.10;44.52;99074.59;5052407;28;20029;-85
2022/02/19 01:43:22;;;;;;;6.45;0.95;;;;;;;8.16;45.26;99076.16;5049695;28;20039;-85
2022/02/19 01:45:48;;;;;;;10.45;1.30;;;;;;;8.10;44.49;99049.78;5054556;28;20115;-84
2022/02/19 01:48:14;;;;;;;5.22;1.33;;;;;;;8.13;44.92;99055.34;5048464;28;20029;-84
2022/02/19 01:50:40;;;;;;;3.55;0.95;;;;;;;8.07;45.28;99056.44;5047162;28;20023;-84
2022/02/19 01:53:06;;;;;;;6.45;1.30;;;;;;;8.09;45.13;99051.66;5048761;28;20103;-84
2022/02/19 01:55:32;;;;;;;3.88;1.38;;;;;;;8.10;45.12;99053.25;5054702;28;20085;-84
2022/02/19 01:57:58;;;;;;;2.67;0.93;;;;;;;8.13;45.14;99059.91;5051913;28;20036;-84
2022/02/19 02:00:24;;;;;;;5.78;1.10;;;;;;;8.13;45.45;99066.03;5045794;28;20434;-84
2022/02/19 02:02:52;;;;;;;16.60;2.30;;;;;;;8.05;45.40;99039.91;5047543;28;20029;-84
2022/02/19 02:05:17;;;;;;;8.30;1.25;;;;;;;8.05;44.88;99052.44;5056202;28;20025;-84
2022/02/19 02:07:44;;;;;;;7.13;1.30;;;;;;;8.04;45.30;99061.53;5044351;28;20364;-84
2022/02/19 02:10:10;;;;;;;6.57;1.10;;;;;;;8.03;45.35;99075.94;5046589;28;20025;-84
2022/02/19 02:12:35;;;;;;;8.57;1.58;;;;;;;7.96;45.33;99075.44;5050242;28;20028;-84
2022/02/19 02:15:01;;;;;;;7.22;2.53;;;;;;;7.95;45.02;99061.28;5050553;28;20037;-85
2022/02/19 02:17:27;;;;;;;5.15;1.33;;;;;;;7.97;45.13;99064.47;5050882;28;20112;-85
2022/02/19 02:19:53;;;;;;;6.55;1.70;;;;;;;8.00;45.18;99045.28;5051515;28;20024;-85
2022/02/19 02:22:19;;;;;;;4.35;1.58;;;;;;;8.01;45.00;99041.53;5051448;28;20017;-84
2022/02/19 02:24:44;;;;;;;7.35;1.15;;;;;;;7.98;44.53;99047.41;5048204;28;20029;-85
2022/02/19 02:27:12;;;;;;;7.80;1.20;;;;;;;8.02;44.83;99045.78;5042133;28;20024;-84
2022/02/19 02:29:45;;;;;;;5.10;1.40;;;;;;;7.96;44.62;99064.75;5050966;28;20025;-84
2022/02/19 02:32:10;;;;;;;4.65;1.20;;;;;;;7.96;44.68;99048.75;5042525;28;20631;-85
2022/02/19 02:34:50;;;;;;;3.38;1.42;;;;;;;7.95;44.58;99029.28;5053927;28;20035;-84
2022/02/19 02:37:16;;;;;;;6.20;1.58;;;;;;;7.96;44.69;99044.22;5052569;28;20070;-85
2022/02/19 02:39:42;;;;;;;4.78;1.60;;;;;;;7.96;44.46;99046.09;5044792;28;20406;-84
2022/02/19 02:42:08;;;;;;;6.72;1.30;;;;;;;7.95;44.43;99049.81;5040583;28;20108;-84
2022/02/19 02:44:40;;;;;;;4.80;1.33;;;;;;;7.83;43.73;99044.78;5054662;28;20111;-84
2022/02/19 02:47:08;;;;;;;11.93;1.98;;;;;;;7.86;43.81;99046.91;5045504;28;20035;-84
2022/02/19 02:49:34;;;;;;;9.68;1.77;;;;;;;7.83;43.58;99050.13;5050884;28;20027;-84
2022/02/19 02:52:00;;;;;;;5.18;1.30;;;;;;;7.79;43.55;99049.06;5056031;28;20020;-84
2022/02/19 02:54:25;;;;;;;4.30;1.08;;;;;;;7.81;43.58;99039.72;5047518;28;20052;-85
2022/02/19 02:56:51;;;;;;;3.92;1.10;;;;;;;7.82;43.51;99067.19;5044429;28;20032;-84
2022/02/19 02:59:16;;;;;;;2.72;1.13;;;;;;;7.83;43.56;99047.44;5056156;28;20420;-84
2022/02/19 03:01:42;;;;;;;3.05;1.30;;;;;;;7.71;42.85;99069.06;5045970;28;20032;-84
2022/02/19 03:04:07;;;;;;;5.07;1.40;;;;;;;7.68;42.96;99061.63;5045204;28;20024;-84
2022/02/19 03:06:33;;;;;;;3.63;1.08;;;;;;;7.64;42.63;99044.56;5058365;28;20374;-84
2022/02/19 03:08:58;;;;;;;4.53;1.63;;;;;;;7.60;42.91;99062.19;5046595;28;20028;-84
2022/02/19 03:11:24;;;;;;;7.78;1.77;;;;;;;7.66;42.92;99076.28;5047148;28;20032;-84
2022/02/19 03:13:49;;;;;;;6.95;1.80;;;;;;;7.72;43.81;99054.69;5049018;28;20028;-84
2022/02/19 03:16:15;;;;;;;8.82;1.73;;;;;;;7.65;43.60;99016.03;5052492;28;20027;-84
2022/02/19 03:19:23;;;;;;;7.30;1.25;;;;;;;7.58;43.02;99053.66;5041511;28;20030;-84
2022/02/19 03:22:06;;;;;;;7.97;1.55;;;;;;;7.61;43.86;99053.09;5038266;28;20052;-84
2022/02/19 03:24:31;;;;;;;8.98;1.30;;;;;;;7.45;43.30;99055.00;5048475;28;20025;-84
2022/02/19 03:26:58;;;;;;;7.13;1.67;;;;;;;7.55;43.66;99055.00;5052467;28;20033;-85
2022/02/19 03:29:24;;;;;;;6.03;1.13;;;;;;;7.55;43.82;99060.31;5051810;28;20051;-84
2022/02/19 03:31:50;;;;;;;7.20;1.50;;;;;;;7.49;43.48;99058.72;5050583;28;20036;-84
2022/02/19 03:34:16;;;;;;;7.95;1.65;;;;;;;7.55;43.67;99057.66;5049439;28;20466;-85
2022/02/19 03:36:41;;;;;;;8.90;2.03;;;;;;;7.52;43.83;99058.16;5046577;28;20025;-83
2022/02/19 03:39:07;;;;;;;3.95;1.13;;;;;;;7.41;43.65;99080.59;5053096;28;20032;-84
2022/02/19 03:41:34;;;;;;;9.18;1.90;;;;;;;7.51;44.31;99069.09;5052442;28;20402;-84
2022/02/19 03:44:00;;;;;;;5.35;1.15;;;;;;;7.43;44.09;99082.97;5055010;28;20029;-84
2022/02/19 03:46:26;;;;;;;8.88;1.60;;;;;;;7.37;44.32;99071.53;5046977;28;20031;-84
2022/02/19 03:48:51;;;;;;;16.05;2.00;;;;;;;7.38;44.33;99059.00;5051342;28;20118;-84
2022/02/19 03:51:17;;;;;;;6.07;1.42;;;;;;;7.32;44.59;99130.13;5047756;28;20076;-85
2022/02/19 03:53:42;;;;;;;5.65;1.48;;;;;;;7.24;45.22;99112.03;5055707;28;20525;-85
2022/02/19 03:56:08;;;;;;;4.38;1.23;;;;;;;7.32;45.44;99148.78;5058614;28;20481;-85
2022/02/19 03:58:34;;;;;;;6.23;1.40;;;;;;;7.23;46.71;99139.72;5057993;28;20029;-83
2022/02/19 04:01:02;;;;;;;10.38;1.55;;;;;;;7.15;47.73;99146.34;5048975;28;20024;-83
2022/02/19 04:03:27;;;;;;;7.35;1.40;;;;;;;7.04;48.73;99171.38;5052745;28;20025;-84
2022/02/19 04:05:53;;;;;;;6.68;1.65;;;;;;;6.96;49.47;99164.69;5049492;28;20677;-83
2022/02/19 04:08:19;;;;;;;5.93;1.10;;;;;;;6.94;49.94;99150.06;5046887;28;20583;-84
2022/02/19 04:10:44;;;;;;;7.57;1.25;;;;;;;6.93;49.93;99154.56;5044977;28;20009;-84
2022/02/19 04:13:10;;;;;;;5.45;1.08;;;;;;;6.89;50.45;99139.41;5046775;28;20021;-83
2022/02/19 04:15:35;;;;;;;7.38;1.50;;;;;;;6.88;50.13;99141.25;5055056;28;20482;-84
2022/02/19 04:18:02;;;;;;;7.65;2.05;;;;;;;6.86;50.20;99138.06;5049876;28;20047;-84
2022/02/19 04:20:27;;;;;;;5.82;1.55;;;;;;;6.85;49.72;99156.97;5044324;28;20502;-84
2022/02/19 04:22:53;;;;;;;4.35;1.27;;;;;;;6.86;49.91;99172.69;5053466;28;20025;-85
2022/02/19 04:25:19;;;;;;;5.22;1.30;;;;;;;6.87;49.64;99176.94;5050388;28;20656;-84
2022/02/19 04:27:44;;;;;;;4.82;1.98;;;;;;;6.86;49.93;99178.00;5056112;28;20028;-84
2022/02/19 04:30:10;;;;;;;5.97;0.98;;;;;;;6.89;49.78;99164.16;5053995;28;20656;-84
2022/02/19 04:32:36;;;;;;;4.68;1.45;;;;;;;6.95;49.28;99195.06;5048860;28;20038;-84
2022/02/19 04:35:04;;;;;;;3.30;0.90;;;;;;;6.95;48.97;99197.72;5053418;28;20039;-84
2022/02/19 04:37:30;;;;;;;3.95;1.10;;;;;;;6.93;49.24;99181.19;5055004;28;20457;-85
2022/02/19 04:39:55;;;;;;;7.47;1.27;;;;;;;6.97;49.20;99211.56;5045286;28;20027;-84
2022/02/19 04:42:21;;;;;;;6.50;1.10;;;;;;;6.98;49.36;99234.47;5051504;28;20044;-84
2022/02/19 04:44:46;;;;;;;6.97;1.13;;;;;;;6.98;49.37;99247.78;5052748;28;20045;-84
2022/02/19 04:47:12;;;;;;;4.28;0.82;;;;;;;6.98;49.95;99236.31;5043907;28;20185;-84
2022/02/19 04:49:38;;;;;;;5.07;1.25;;;;;;;6.94;49.99;99257.34;5052691;28;20066;-84
2022/02/19 04:52:03;;;;;;;2.72;0.93;;;;;;;6.93;50.11;99263.75;5053493;28;20032;-84
2022/02/19 04:54:29;;;;;;;3.00;0.70;;;;;;;6.92;50.68;99258.69;5050584;28;20025;-84
2022/02/19 04:56:54;;;;;;;4.13;1.10;;;;;;;6.86;50.86;99284.50;5048077;28;20338;-85
2022/02/19 04:59:20;;;;;;;4.70;1.08;;;;;;;6.84;51.35;99283.16;5050858;28;20099;-83
2022/02/19 05:01:48;;;;;;;4.40;0.70;;;;;;;6.82;51.62;99267.44;5056544;28;20027;-85
2022/02/19 05:04:13;;;;;;;3.45;0.70;;;;;;;6.76;51.83;99287.09;5055494;28;20032;-84
2022/02/19 05:06:39;;;;;;;5.07;1.00;;;;;;;6.71;52.23;99296.91;5061224;28;20032;-84
2022/02/19 05:09:04;;;;;;;4.05;1.80;;;;;;;6.62;53.12;99288.59;5057674;28;20020;-83
2022/02/19 05:11:30;;;;;;;9.82;1.20;;;;;;;6.53;53.00;99317.56;5052758;28;20478;-84
2022/02/19 05:13:56;;;;;;;2.67;0.52;;;;;;;6.50;53.53;99280.84;5050817;28;20041;-84
2022/02/19 05:16:21;;;;;;;1.73;0.70;;;;;;;6.45;53.40;99339.31;5052363;28;20111;-84
2022/02/19 05:18:47;;;;;;;1.75;0.68;;;;;;;6.48;53.70;99330.84;5046297;28;20064;-84
2022/02/19 05:21:12;;;;;;;8.38;1.23;;;;;;;6.47;54.06;99339.09;5059857;28;20752;-84
2022/02/19 05:23:38;;;;;;;4.32;0.63;;;;;;;6.42;54.44;99339.81;5051648;28;20355;-84
2022/02/19 05:26:03;;;;;;;7.57;0.80;;;;;;;6.37;55.14;99321.19;5052014;28;20048;-84
2022/02/19 05:28:29;;;;;;;1.75;0.98;;;;;;;6.32;55.32;99355.72;5050755;28;20033;-84
2022/02/19 05:30:54;;;;;;;3.28;0.95;;;;;;;6.27;55.36;99379.59;5053046;28;20522;-84
2022/02/19 05:33:20;;;;;;;3.25;0.70;;;;;;;6.22;55.58;99339.66;5055077;28;20016;-84
2022/02/19 05:35:45;;;;;;;2.78;0.90;;;;;;;6.12;55.97;99353.69;5055128;28;20115;-84
2022/02/19 05:38:11;;;;;;;5.38;0.80;;;;;;;6.11;56.44;99399.16;5054637;28;20028;-85
2022/02/19 05:40:37;;;;;;;7.55;1.25;;;;;;;6.05;56.11;99388.47;5057559;28;20403;-85
2022/02/19 05:43:04;;;;;;;1.63;0.60;;;;;;;6.05;56.04;99377.81;5056495;28;20020;-84
2022/02/19 05:45:31;;;;;;;2.20;0.70;;;;;;;6.08;56.49;99387.16;5050692;28;20107;-84
2022/02/19 05:47:58;;;;;;;5.57;0.77;;;;;;;6.02;56.89;99414.75;5051064;28;20052;-84
2022/02/19 05:50:24;;;;;;;6.13;0.75;;;;;;;6.07;56.96;99412.13;5054942;28;20044;-84
2022/02/19 05:52:50;;;;;;;2.67;0.50;;;;;;;6.04;57.10;99434.72;5046742;28;20031;-84
2022/02/19 05:55:16;;;;;;;4.50;0.75;;;;;;;6.04;57.43;99431.25;5053959;28;20461;-83
2022/02/19 05:57:42;;;;;;;3.60;0.82;;;;;;;6.04;57.98;99437.38;5042600;28;20025;-84
2022/02/19 06:00:09;;;;;;;2.95;0.80;;;;;;;5.98;58.22;99459.66;5052325;28;20033;-85
2022/02/19 06:02:36;;;;;;;3.47;0.70;;;;;;;5.95;58.34;99468.13;5046877;28;20025;-84
2022/02/19 06:05:01;;;;;;;2.28;0.73;;;;;;;5.91;59.04;99466.19;5053219;28;20064;-84
2022/02/19 06:07:27;;;;;;;7.63;0.80;;;;;;;5.91;58.88;99455.56;5051679;28;20049;-84
2022/02/19 06:09:52;;;;;;;1.42;0.77;;;;;;;5.87;59.40;99471.19;5049759;28;20013;-85
2022/02/19 06:12:18;;;;;;;4.28;1.08;;;;;;;5.86;59.25;99495.34;5050681;28;20053;-84
2022/02/19 06:14:43;;;;;;;4.30;0.65;;;;;;;5.87;59.77;99496.97;5053854;28;20387;-84
2022/02/19 06:17:09;;;;;;;2.05;0.85;;;;;;;5.85;59.80;99494.53;5050542;28;20031;-84
2022/02/19 06:19:34;;;;;;;1.33;0.52;;;;;;;5.87;59.51;99515.56;5051672;28;20040;-85
2022/02/19 06:22:00;;;;;;;2.08;0.55;;;;;;;5.91;59.71;99543.28;5051991;28;20123;-85
2022/02/19 06:24:26;;;;;;;2.88;0.70;;;;;;;5.95;59.30;99529.28;5047964;28;20028;-84
2022/02/19 06:26:52;;;;;;;5.43;1.15;;;;;;;5.90;60.09;99542.47;5049376;28;20036;-85
2022/02/19 06:29:18;;;;;;;4.32;0.98;;;;;;;5.87;60.01;99528.84;5045207;28;20022;-84
2022/02/19 06:31:43;;;;;;;0.70;0.50;;;;;;;5.81;60.28;99569.72;5055315;28;20020;-84
2022/02/19 06:34:09;;;;;;;4.63;0.93;;;;;;;5.80;60.71;99581.41;5048214;28;20021;-84
2022/02/19 06:36:34;;;;;;;6.68;0.82;;;;;;;5.68;61.52;99574.31;5052869;28;20029;-84
2022/02/19 06:39:00;;;;;;;3.25;0.80;;;;;;;5.65;61.86;99584.66;5047903;28;20029;-84
2022/02/19 06:41:26;;;;;;;1.98;0.75;;;;;;;5.63;61.60;99611.47;5048684;28;20029;-84
2022/02/19 06:43:52;;;;;;;3.75;0.88;;;;;;;5.67;61.59;99617.91;5047645;28;20565;-84
2022/02/19 06:46:18;;;;;;;10.30;1.02;;;;;;;5.72;61.66;99633.09;5048474;28;20033;-84
2022/02/19 06:48:43;;;;;;;1.75;0.73;;;;;;;5.69;61.86;99625.63;5049848;28;20402;-84
2022/02/19 06:51:09;;;;;;;7.25;0.90;;;;;;;5.66;62.23;99656.16;5061543;28;20390;-84
2022/02/19 06:53:36;;;;;;;1.73;0.40;;;;;;;5.70;61.91;99686.50;5050372;28;20021;-85
2022/02/19 06:56:02;;;;;;;1.52;0.60;;;;;;;5.70;62.07;99659.94;5046928;28;20062;-84
2022/02/19 06:58:28;;;;;;;1.23;0.68;;;;;;;5.72;61.88;99660.47;5048579;28;20016;-85
2022/02/19 07:00:56;;;;;;;3.20;0.65;;;;;;;5.69;62.30;99676.91;5048850;28;20108;-84
2022/02/19 07:03:21;;;;;;;4.05;0.70;;;;;;;5.70;62.20;99683.84;5038219;28;20037;-84
2022/02/19 07:05:51;;;;;;;1.50;0.47;;;;;;;5.71;62.00;99703.25;5048792;28;20021;-84
2022/02/19 07:08:19;;;;;;;2.15;0.50;;;;;;;5.74;62.32;99727.53;5058720;28;20025;-84
2022/02/19 07:10:44;;;;;;;5.20;0.60;;;;;;;5.76;62.24;99720.09;5048109;28;20025;-85
2022/02/19 07:13:10;;;;;;;2.08;0.60;;;;;;;5.79;62.21;99723.31;5058449;28;20033;-85
2022/02/19 07:15:35;;;;;;;5.10;0.70;;;;;;;5.80;61.96;99754.19;5046266;28;20064;-85
2022/02/19 07:18:01;;;;;;;3.13;0.40;;;;;;;5.85;62.06;99764.88;5050343;28;20033;-84
2022/02/19 07:20:27;;;;;;;3.78;1.55;;;;;;;5.83;62.06;99766.97;5048816;28;20046;-85
2022/02/19 07:22:53;;;;;;;1.38;0.60;;;;;;;5.85;61.78;99800.25;5063100;28;20021;-84
2022/02/19 07:25:20;;;;;;;3.72;0.75;;;;;;;5.82;62.25;99791.94;5049312;28;20132;-84
2022/02/19 07:27:46;;;;;;;2.05;0.50;;;;;;;5.83;61.47;99798.88;5050015;28;20363;-84
2022/02/19 07:30:15;;;;;;;1.17;0.40;;;;;;;5.80;61.43;99815.31;5047254;28;20029;-84
2022/02/19 07:32:41;;;;;;;2.58;0.50;;;;;;;5.74;62.21;99827.69;5038373;28;20333;-84
2022/02/19 07:35:22;;;;;;;3.83;0.75;;;;;;;5.56;64.59;99844.63;5049662;28;20074;-84
2022/02/19 07:37:48;;;;;;;2.17;0.68;;;;;;;5.54;64.21;99844.06;5045455;28;20991;-84
2022/02/19 07:40:14;;;;;;;2.80;0.70;;;;;;;5.51;64.92;99857.81;5042542;28;20024;-84
2022/02/19 07:42:39;;;;;;;2.13;0.57;;;;;;;5.55;65.03;99863.47;5057373;28;20032;-84
2022/02/19 07:45:05;;;;;;;0.50;0.30;;;;;;;5.56;65.40;99867.72;5056846;28;20390;-85
2022/02/19 07:47:33;;;;;;;2.70;0.50;;;;;;;5.50;66.06;99858.88;5056635;28;20400;-84
2022/02/19 07:58:18;;;;;;;1.85;0.47;;;;;;;5.59;64.86;99913.28;5059683;28;20501;-84
2022/02/19 08:00:54;;;;;;;2.60;0.57;;;;;;;5.61;64.86;99908.53;5050322;28;20029;-85
2022/02/19 08:03:22;;;;;;;2.20;0.50;;;;;;;5.63;64.79;99913.59;5056779;28;20032;-85
2022/02/19 08:05:49;;;;;;;1.63;0.60;;;;;;;5.65;64.25;99914.97;5047952;28;20033;-85
2022/02/19 08:08:15;;;;;;;1.23;0.40;;;;;;;5.68;64.27;99924.31;5057779;28;20119;-84
2022/02/19 08:10:41;;;;;;;3.67;0.68;;;;;;;5.71;63.94;99937.94;5056082;28;20070;-85
2022/02/19 08:13:09;;;;;;;1.45;0.50;;;;;;;5.70;63.95;99925.69;5054680;28;20029;-85
2022/02/19 08:15:36;;;;;;;2.10;0.65;;;;;;;5.76;63.61;99937.25;5076032;22;20044;-73
2022/02/19 08:18:06;;;;;;;2.45;0.63;;;;;;;5.76;63.83;99948.69;5062820;28;20047;-73
2022/02/19 08:20:34;;;;;;;2.20;0.60;;;;;;;5.83;63.18;99969.00;5045973;28;20624;-73
2022/02/19 08:23:00;;;;;;;5.82;0.90;;;;;;;5.86;63.28;99979.16;5044190;28;20037;-73
2022/02/19 08:25:26;;;;;;;3.33;0.60;;;;;;;5.91;63.21;99966.00;5040956;28;20035;-74
2022/02/19 08:27:52;;;;;;;2.15;0.57;;;;;;;5.90;63.09;99993.63;5045710;28;20397;-74
2022/02/19 08:30:18;;;;;;;1.33;0.40;;;;;;;5.94;62.84;100008.09;5041280;28;20020;-74
2022/02/19 08:32:44;;;;;;;2.97;1.33;;;;;;;5.98;62.42;99998.59;5044724;28;20106;-73
2022/02/19 08:35:09;;;;;;;0.98;0.40;;;;;;;6.04;62.38;100017.06;5043938;28;20033;-74
2022/02/19 08:37:36;;;;;;;1.85;0.60;;;;;;;6.07;62.17;100029.06;5043104;28;20465;-74
2022/02/19 08:40:01;;;;;;;1.23;0.60;;;;;;;6.08;62.21;100041.31;5061535;28;20032;-74
2022/02/19 08:42:27;;;;;;;0.20;0.20;;;;;;;6.09;62.04;100050.91;5045816;28;20052;-74
2022/02/19 08:44:53;;;;;;;0.88;0.30;;;;;;;6.06;63.00;100048.75;5044394;28;20032;-73
2022/02/19 08:47:19;;;;;;;1.38;0.40;;;;;;;6.07;62.69;100063.66;5042973;28;20607;-73
2022/02/19 08:49:45;;;;;;;1.50;0.40;;;;;;;6.03;63.34;100083.78;5045285;28;20064;-74
2022/02/19 08:52:10;;;;;;;0.82;0.40;;;;;;;6.02;63.71;100084.81;5044419;28;20017;-73
2022/02/19 08:54:36;;;;;;;2.78;0.40;;;;;;;5.95;64.43;100089.47;5041463;28;20120;-73
2022/02/19 08:57:03;;;;;;;1.95;0.40;;;;;;;5.92;64.18;100106.69;5044551;28;20052;-73
2022/02/19 08:59:28;;;;;;;0.25;0.25;;;;;;;5.90;64.51;100108.75;5042815;28;20020;-73
2022/02/19 09:01:56;;;;;;;2.45;0.50;;;;;;;5.90;64.64;100113.28;5045656;28;20037;-74
2022/02/19 09:04:22;;;;;;;2.85;0.40;;;;;;;5.92;63.98;100111.19;5041322;28;20048;-73
2022/02/19 09:07:10;;;;;;;3.03;0.45;;;;;;;6.01;64.12;100136.41;5043225;28;20032;-73
2022/02/19 09:09:37;;;;;;;0.47;0.45;;;;;;;6.12;64.00;100140.91;5055962;28;20312;-74
2022/02/19 09:12:05;;;;;;;2.65;0.50;;;;;;;6.14;63.45;100151.31;5041907;28;20036;-74
2022/02/19 09:14:30;;;;;;;1.55;0.40;;;;;;;6.17;63.65;100162.28;5039922;28;20024;-73
2022/02/19 09:16:56;;;;;;;1.63;0.40;;;;;;;6.21;63.18;100149.31;5037169;28;20060;-74
2022/02/19 09:19:21;;;;;;;2.03;0.43;;;;;;;6.31;63.13;100168.16;5042645;28;20044;-74
2022/02/19 09:21:47;;;;;;;0.40;0.40;;;;;;;6.45;62.93;100174.03;5044050;28;20036;-74
2022/02/19 09:24:12;;;;;;;4.15;1.27;;;;;;;6.47;62.79;100180.75;5040129;28;20037;-74
2022/02/19 09:26:38;;;;;;;1.25;0.47;;;;;;;6.49;62.55;100188.50;5043528;28;20032;-73
2022/02/19 09:29:03;;;;;;;0.30;0.30;;;;;;;6.47;62.86;100206.56;5045395;28;20578;-74
2022/02/19 09:31:29;;;;;;;0.30;0.30;;;;;;;6.43;62.70;100213.38;5044281;28;20025;-74
2022/02/19 09:33:54;;;;;;;0.75;0.40;;;;;;;6.36;63.08;100216.16;5040788;28;20029;-73
2022/02/19 09:36:20;;;;;;;1.35;0.30;;;;;;;6.35;63.33;100231.31;5039845;28;20032;-73
2022/02/19 09:38:47;;;;;;;0.70;0.40;;;;;;;6.28;64.00;100246.59;5037134;28;20499;-73
2022/02/19 09:41:14;;;;;;;1.92;0.40;;;;;;;6.18;64.57;100267.63;5045329;28;20025;-73
2022/02/19 09:43:41;;;;;;;3.17;0.50;;;;;;;6.09;65.21;100274.31;5044963;28;20506;-73
2022/02/19 09:46:07;;;;;;;0.65;0.40;;;;;;;6.09;66.05;100276.19;5043027;28;20025;-73
2022/02/19 09:48:34;;;;;;;1.30;0.50;;;;;;;6.09;65.74;100300.91;5041166;28;20094;-73
2022/02/19 09:51:00;;;;;;;0.75;0.40;;;;;;;6.15;65.82;100301.88;5044145;28;20021;-73
2022/02/19 09:53:28;;;;;;;1.00;0.38;;;;;;;6.21;65.15;100299.09;5039025;28;20183;-74
2022/02/19 09:55:55;;;;;;;7.70;0.93;;;;;;;6.28;65.24;100313.13;5043771;28;20048;-73
2022/02/19 09:58:22;;;;;;;2.10;0.60;;;;;;;6.40;64.57;100313.09;5042030;28;20017;-74
2022/02/19 10:00:48;;;;;;;1.10;0.52;;;;;;;6.42;64.48;100318.19;5042514;28;20021;-74
2022/02/19 10:03:23;;;;;;;2.00;0.70;;;;;;;6.38;64.11;100341.81;5042986;28;20115;-74
2022/02/19 10:05:54;;;;;;;4.55;1.00;;;;;;;6.34;63.65;100345.97;5042231;28;20526;-74
2022/02/19 10:08:20;;;;;;;3.92;0.80;;;;;;;6.33;63.72;100347.81;5041796;28;20043;-74
2022/02/19 10:10:50;;;;;;;1.10;0.40;;;;;;;6.35;63.59;100374.19;5043123;28;21662;-73
2022/02/19 10:13:34;;;;;;;2.03;0.43;;;;;;;6.33;63.15;100373.63;5041700;28;20029;-74
2022/02/19 10:16:02;;;;;;;2.72;1.08;;;;;;;6.41;63.62;100380.44;5042267;28;20118;-73
2022/02/19 10:18:39;;;;;;;4.60;0.75;;;;;;;6.41;63.73;100401.72;5040810;28;20091;-74
2022/02/19 10:21:16;;;;;;;1.15;0.55;;;;;;;6.41;63.37;100399.06;5040603;28;20099;-74
2022/02/19 10:23:50;;;;;;;2.75;0.65;;;;;;;6.45;62.97;100402.88;5039853;28;20094;-74
2022/02/19 10:26:18;;;;;;;6.38;0.95;;;;;;;6.54;62.89;100414.84;5041051;28;20098;-74
2022/02/19 10:29:07;;;;;;;2.28;1.10;;;;;;;6.51;61.63;100429.41;5039506;28;20026;-73
2022/02/19 10:31:34;;;;;;;2.90;0.75;;;;;;;6.64;62.07;100420.38;5042750;28;20028;-74
2022/02/19 10:34:16;;;;;;;5.75;1.38;;;;;;;6.64;61.25;100434.53;5042028;28;20041;-73
2022/02/19 10:36:54;;;;;;;1.10;0.65;;;;;;;6.74;61.23;100443.78;5041728;28;20024;-74
2022/02/19 10:39:29;;;;;;;4.03;0.98;;;;;;;6.68;60.78;100456.19;5041143;28;20025;-74
2022/02/19 10:41:59;;;;;;;2.85;0.95;;;;;;;6.63;61.50;100470.16;5040194;28;20098;-73
2022/02/19 10:44:29;;;;;;;0.93;0.45;;;;;;;6.57;61.67;100480.91;5042346;28;20040;-74
2022/02/19 10:47:16;;;;;;;1.63;0.50;;;;;;;6.54;62.60;100487.50;5042260;28;20152;-73
2022/02/19 10:50:03;;;;;;;3.13;0.50;;;;;;;6.52;65.16;100488.78;5039414;28;20036;-73
2022/02/19 10:52:28;;;;;;;2.05;0.60;;;;;;;6.44;64.86;100511.19;5039428;28;20058;-73
2022/02/19 10:55:02;;;;;;;1.35;1.08;;;;;;;6.36;66.43;100493.72;5040818;28;20060;-74
2022/02/19 10:57:30;;;;;;;1.38;0.63;;;;;;;6.37;65.91;100510.47;5039075;28;20029;-73
2022/02/19 10:59:55;;;;;;;3.05;0.52;;;;;;;6.48;66.11;100508.91;5035565;28;20475;-73
2022/02/19 11:02:24;;;;;;;2.45;0.43;;;;;;;6.65;65.86;100510.69;5036516;28;20044;-74
2022/02/19 11:04:50;;;;;;;1.65;0.38;;;;;;;6.74;65.23;100521.00;5039696;28;20052;-74
2022/02/19 11:07:16;;;;;;;1.85;0.60;;;;;;;6.86;64.89;100528.00;5040018;28;21859;-74
2022/02/19 11:09:43;;;;;;;1.63;0.65;;;;;;;6.95;64.25;100531.94;5040429;28;20475;-74
2022/02/19 11:12:09;;;;;;;1.35;0.30;;;;;;;7.04;63.47;100526.28;5034450;28;20029;-74
2022/02/19 11:14:38;;;;;;;1.52;0.50;;;;;;;7.10;62.91;100533.34;5037734;28;20043;-73
2022/02/19 11:17:05;;;;;;;0.98;0.50;;;;;;;7.08;62.78;100548.75;5040376;28;20119;-73
2022/02/19 11:19:32;;;;;;;3.17;0.70;;;;;;;7.08;62.42;100544.22;5039967;28;20049;-73
2022/02/19 11:21:58;;;;;;;1.13;0.52;;;;;;;7.07;62.30;100549.78;5038543;28;20592;-73
2022/02/19 11:24:24;;;;;;;2.42;0.52;;;;;;;7.12;62.05;100563.22;5039403;28;20051;-73
2022/02/19 11:26:50;;;;;;;3.70;0.68;;;;;;;7.17;62.10;100550.03;5038246;28;20031;-75
2022/02/19 11:29:21;;;;;;;1.88;0.68;;;;;;;7.13;61.94;100570.19;5038070;28;20678;-73
2022/02/19 11:31:48;;;;;;;1.65;0.50;;;;;;;7.08;61.74;100567.41;5039562;28;20028;-73
2022/02/19 11:34:22;;;;;;;4.60;0.75;;;;;;;7.05;61.37;100562.53;5052125;28;20102;-73
2022/02/19 11:36:50;;;;;;;4.28;1.05;;;;;;;7.03;61.35;100577.94;5040524;28;20106;-74
2022/02/19 11:39:15;;;;;;;1.17;0.57;;;;;;;7.01;61.67;100583.50;5038969;28;20035;-73
2022/02/19 11:41:45;;;;;;;3.85;0.60;;;;;;;7.09;61.41;100591.16;5034745;28;20016;-73
2022/02/19 11:44:19;;;;;;;1.52;0.50;;;;;;;7.11;61.35;100609.56;5039508;28;20061;-73
2022/02/19 11:46:46;;;;;;;2.42;0.65;;;;;;;7.21;61.08;100605.31;5037428;28;20128;-73